sensor_id;sensor_type;location;lat;lon;timestamp;P1;durP1;ratioP1;P2;durP2;ratioP2
5416;SDS011;2731;50.754;12.990;2022-12-11T00:00:41;21.17;;;11.52;;
5416;SDS011;2731;50.754;12.990;2022-12-11T00:03:06;23.52;;;11.95;;
5416;SDS011;2731;50.754;12.990;2022-12-11T00:05:32;23.25;;;12.63;;
5416;SDS011;2731;50.754;12.990;2022-12-11T00:07:57;22.15;;;12.75;;
5416;SDS011;2731;50.754;12.990;2022-12-11T00:10:23;24.40;;;12.05;;
5416;SDS011;2731;50.754;12.990;2022-12-11T00:12:48;21.70;;;12.05;;
5416;SDS011;2731;50.754;12.990;2022-12-11T00:15:14;23.75;;;12.07;;
5416;SDS011;2731;50.754;12.990;2022-12-11T00:17:39;24.15;;;12.30;;
5416;SDS011;2731;50.754;12.990;2022-12-11T00:20:05;26.55;;;13.18;;
5416;SDS011;2731;50.754;12.990;2022-12-11T00:22:32;24.83;;;13.55;;
5416;SDS011;2731;50.754;12.990;2022-12-11T00:24:57;29.80;;;15.48;;
5416;SDS011;2731;50.754;12.990;2022-12-11T00:27:22;29.15;;;14.93;;
5416;SDS011;2731;50.754;12.990;2022-12-11T00:29:48;33.25;;;15.88;;
5416;SDS011;2731;50.754;12.990;2022-12-11T00:32:13;29.30;;;15.38;;
5416;SDS011;2731;50.754;12.990;2022-12-11T00:34:38;28.40;;;14.80;;
5416;SDS011;2731;50.754;12.990;2022-12-11T00:37:04;32.17;;;16.15;;
5416;SDS011;2731;50.754;12.990;2022-12-11T00:39:29;25.15;;;13.77;;
5416;SDS011;2731;50.754;12.990;2022-12-11T00:41:55;27.42;;;14.05;;
5416;SDS011;2731;50.754;12.990;2022-12-11T00:44:20;27.80;;;14.13;;
5416;SDS011;2731;50.754;12.990;2022-12-11T00:46:45;26.38;;;13.80;;
5416;SDS011;2731;50.754;12.990;2022-12-11T00:49:12;29.30;;;15.52;;
5416;SDS011;2731;50.754;12.990;2022-12-11T00:51:37;30.65;;;15.98;;
5416;SDS011;2731;50.754;12.990;2022-12-11T00:54:03;28.75;;;14.38;;
5416;SDS011;2731;50.754;12.990;2022-12-11T00:56:28;26.40;;;13.75;;
5416;SDS011;2731;50.754;12.990;2022-12-11T00:58:54;23.40;;;12.95;;
5416;SDS011;2731;50.754;12.990;2022-12-11T01:01:21;22.92;;;11.98;;
5416;SDS011;2731;50.754;12.990;2022-12-11T01:03:48;25.02;;;13.23;;
5416;SDS011;2731;50.754;12.990;2022-12-11T01:06:14;24.58;;;12.82;;
5416;SDS011;2731;50.754;12.990;2022-12-11T01:08:41;25.02;;;12.43;;
5416;SDS011;2731;50.754;12.990;2022-12-11T01:11:09;25.05;;;13.80;;
5416;SDS011;2731;50.754;12.990;2022-12-11T01:13:36;28.70;;;14.15;;
5416;SDS011;2731;50.754;12.990;2022-12-11T01:16:07;26.08;;;12.65;;
5416;SDS011;2731;50.754;12.990;2022-12-11T01:18:34;24.75;;;13.77;;
5416;SDS011;2731;50.754;12.990;2022-12-11T01:21:03;24.55;;;14.05;;
5416;SDS011;2731;50.754;12.990;2022-12-11T01:23:30;28.40;;;15.60;;
5416;SDS011;2731;50.754;12.990;2022-12-11T01:25:55;25.17;;;13.60;;
5416;SDS011;2731;50.754;12.990;2022-12-11T01:28:20;24.73;;;13.75;;
5416;SDS011;2731;50.754;12.990;2022-12-11T01:30:46;25.85;;;13.60;;
5416;SDS011;2731;50.754;12.990;2022-12-11T01:33:11;28.42;;;14.43;;
5416;SDS011;2731;50.754;12.990;2022-12-11T01:35:38;31.17;;;14.93;;
5416;SDS011;2731;50.754;12.990;2022-12-11T01:38:05;31.63;;;16.13;;
5416;SDS011;2731;50.754;12.990;2022-12-11T01:40:32;31.23;;;15.82;;
5416;SDS011;2731;50.754;12.990;2022-12-11T01:42:57;27.80;;;13.70;;
5416;SDS011;2731;50.754;12.990;2022-12-11T01:45:26;29.50;;;16.90;;
5416;SDS011;2731;50.754;12.990;2022-12-11T01:47:59;30.33;;;14.35;;
5416;SDS011;2731;50.754;12.990;2022-12-11T01:50:50;24.98;;;13.75;;
5416;SDS011;2731;50.754;12.990;2022-12-11T01:53:22;31.40;;;16.25;;
5416;SDS011;2731;50.754;12.990;2022-12-11T01:55:53;34.83;;;16.60;;
5416;SDS011;2731;50.754;12.990;2022-12-11T01:58:20;31.00;;;14.38;;
5416;SDS011;2731;50.754;12.990;2022-12-11T02:00:46;24.40;;;14.10;;
5416;SDS011;2731;50.754;12.990;2022-12-11T02:03:12;30.38;;;15.10;;
5416;SDS011;2731;50.754;12.990;2022-12-11T02:05:37;26.77;;;13.48;;
5416;SDS011;2731;50.754;12.990;2022-12-11T02:08:03;25.30;;;13.48;;
5416;SDS011;2731;50.754;12.990;2022-12-11T02:10:42;29.02;;;14.57;;
5416;SDS011;2731;50.754;12.990;2022-12-11T02:18:47;26.58;;;14.07;;
5416;SDS011;2731;50.754;12.990;2022-12-11T02:21:19;28.25;;;13.73;;
5416;SDS011;2731;50.754;12.990;2022-12-11T02:29:12;27.92;;;14.30;;
5416;SDS011;2731;50.754;12.990;2022-12-11T02:31:47;29.65;;;14.75;;
5416;SDS011;2731;50.754;12.990;2022-12-11T02:34:17;29.63;;;14.88;;
5416;SDS011;2731;50.754;12.990;2022-12-11T02:36:48;25.77;;;13.70;;
5416;SDS011;2731;50.754;12.990;2022-12-11T02:39:16;34.50;;;16.02;;
5416;SDS011;2731;50.754;12.990;2022-12-11T02:41:45;28.73;;;15.07;;
5416;SDS011;2731;50.754;12.990;2022-12-11T02:44:13;31.35;;;15.40;;
5416;SDS011;2731;50.754;12.990;2022-12-11T02:46:39;27.08;;;15.55;;
5416;SDS011;2731;50.754;12.990;2022-12-11T02:49:06;29.58;;;15.48;;
5416;SDS011;2731;50.754;12.990;2022-12-11T02:51:35;29.30;;;15.35;;
5416;SDS011;2731;50.754;12.990;2022-12-11T02:54:03;29.17;;;14.93;;
5416;SDS011;2731;50.754;12.990;2022-12-11T02:56:39;27.30;;;13.35;;
5416;SDS011;2731;50.754;12.990;2022-12-11T02:59:09;25.55;;;14.13;;
5416;SDS011;2731;50.754;12.990;2022-12-11T03:01:37;28.08;;;14.65;;
5416;SDS011;2731;50.754;12.990;2022-12-11T03:04:02;29.80;;;14.82;;
5416;SDS011;2731;50.754;12.990;2022-12-11T03:06:30;25.67;;;12.80;;
5416;SDS011;2731;50.754;12.990;2022-12-11T03:09:00;25.38;;;12.52;;
5416;SDS011;2731;50.754;12.990;2022-12-11T03:11:25;25.10;;;13.45;;
5416;SDS011;2731;50.754;12.990;2022-12-11T03:13:51;25.00;;;12.88;;
5416;SDS011;2731;50.754;12.990;2022-12-11T03:16:29;25.20;;;13.95;;
5416;SDS011;2731;50.754;12.990;2022-12-11T03:24:02;24.25;;;13.32;;
5416;SDS011;2731;50.754;12.990;2022-12-11T03:26:29;27.85;;;13.82;;
5416;SDS011;2731;50.754;12.990;2022-12-11T03:29:01;23.58;;;12.43;;
5416;SDS011;2731;50.754;12.990;2022-12-11T03:31:40;28.48;;;13.48;;
5416;SDS011;2731;50.754;12.990;2022-12-11T03:34:19;25.77;;;13.13;;
5416;SDS011;2731;50.754;12.990;2022-12-11T03:36:48;30.35;;;13.90;;
5416;SDS011;2731;50.754;12.990;2022-12-11T03:39:48;26.42;;;13.32;;
5416;SDS011;2731;50.754;12.990;2022-12-11T03:42:10;24.42;;;12.63;;
5416;SDS011;2731;50.754;12.990;2022-12-11T03:44:38;25.38;;;12.68;;
5416;SDS011;2731;50.754;12.990;2022-12-11T03:47:06;26.55;;;13.68;;
5416;SDS011;2731;50.754;12.990;2022-12-11T03:49:33;28.15;;;14.57;;
5416;SDS011;2731;50.754;12.990;2022-12-11T03:52:01;25.08;;;13.05;;
5416;SDS011;2731;50.754;12.990;2022-12-11T03:54:27;24.25;;;13.00;;
5416;SDS011;2731;50.754;12.990;2022-12-11T03:56:54;29.20;;;15.45;;
5416;SDS011;2731;50.754;12.990;2022-12-11T03:59:21;26.42;;;13.85;;
5416;SDS011;2731;50.754;12.990;2022-12-11T04:01:47;24.10;;;12.75;;
5416;SDS011;2731;50.754;12.990;2022-12-11T04:04:12;23.35;;;13.48;;
5416;SDS011;2731;50.754;12.990;2022-12-11T04:06:38;27.60;;;14.07;;
5416;SDS011;2731;50.754;12.990;2022-12-11T04:09:03;31.52;;;15.00;;
5416;SDS011;2731;50.754;12.990;2022-12-11T04:11:31;30.60;;;14.93;;
5416;SDS011;2731;50.754;12.990;2022-12-11T04:14:04;31.05;;;14.57;;
5416;SDS011;2731;50.754;12.990;2022-12-11T04:16:52;29.95;;;15.02;;
5416;SDS011;2731;50.754;12.990;2022-12-11T04:19:19;30.15;;;15.10;;
5416;SDS011;2731;50.754;12.990;2022-12-11T04:22:04;30.00;;;15.10;;
5416;SDS011;2731;50.754;12.990;2022-12-11T04:24:38;32.72;;;16.20;;
5416;SDS011;2731;50.754;12.990;2022-12-11T04:27:03;24.98;;;13.48;;
5416;SDS011;2731;50.754;12.990;2022-12-11T04:29:29;25.80;;;13.73;;
5416;SDS011;2731;50.754;12.990;2022-12-11T04:31:54;23.88;;;13.20;;
5416;SDS011;2731;50.754;12.990;2022-12-11T04:34:20;26.13;;;13.73;;
5416;SDS011;2731;50.754;12.990;2022-12-11T04:36:45;22.38;;;12.43;;
5416;SDS011;2731;50.754;12.990;2022-12-11T04:39:10;22.33;;;12.02;;
5416;SDS011;2731;50.754;12.990;2022-12-11T04:41:36;20.60;;;11.43;;
5416;SDS011;2731;50.754;12.990;2022-12-11T04:44:03;22.77;;;11.77;;
5416;SDS011;2731;50.754;12.990;2022-12-11T04:46:28;21.95;;;12.00;;
5416;SDS011;2731;50.754;12.990;2022-12-11T04:48:54;21.67;;;11.73;;
5416;SDS011;2731;50.754;12.990;2022-12-11T04:51:19;25.88;;;12.57;;
5416;SDS011;2731;50.754;12.990;2022-12-11T04:53:45;26.98;;;13.65;;
5416;SDS011;2731;50.754;12.990;2022-12-11T04:56:12;23.60;;;12.50;;
5416;SDS011;2731;50.754;12.990;2022-12-11T04:58:39;20.60;;;11.00;;
5416;SDS011;2731;50.754;12.990;2022-12-11T05:01:14;22.73;;;12.13;;
5416;SDS011;2731;50.754;12.990;2022-12-11T05:03:49;24.92;;;12.45;;
5416;SDS011;2731;50.754;12.990;2022-12-11T05:06:15;23.98;;;12.02;;
5416;SDS011;2731;50.754;12.990;2022-12-11T05:08:41;25.15;;;12.70;;
5416;SDS011;2731;50.754;12.990;2022-12-11T05:11:07;23.25;;;12.60;;
5416;SDS011;2731;50.754;12.990;2022-12-11T05:13:34;26.60;;;14.32;;
5416;SDS011;2731;50.754;12.990;2022-12-11T05:16:02;23.95;;;12.77;;
5416;SDS011;2731;50.754;12.990;2022-12-11T05:18:31;24.05;;;12.57;;
5416;SDS011;2731;50.754;12.990;2022-12-11T05:20:57;32.65;;;15.07;;
5416;SDS011;2731;50.754;12.990;2022-12-11T05:23:24;34.45;;;14.63;;
5416;SDS011;2731;50.754;12.990;2022-12-11T05:25:50;27.05;;;13.80;;
5416;SDS011;2731;50.754;12.990;2022-12-11T05:28:17;33.60;;;15.98;;
5416;SDS011;2731;50.754;12.990;2022-12-11T05:30:42;37.30;;;17.15;;
5416;SDS011;2731;50.754;12.990;2022-12-11T05:33:07;30.88;;;15.07;;
5416;SDS011;2731;50.754;12.990;2022-12-11T05:35:33;32.60;;;14.93;;
5416;SDS011;2731;50.754;12.990;2022-12-11T05:37:58;27.35;;;14.18;;
5416;SDS011;2731;50.754;12.990;2022-12-11T05:40:24;31.67;;;15.35;;
5416;SDS011;2731;50.754;12.990;2022-12-11T05:42:49;31.60;;;15.68;;
5416;SDS011;2731;50.754;12.990;2022-12-11T05:45:15;30.40;;;13.25;;
5416;SDS011;2731;50.754;12.990;2022-12-11T05:47:41;28.70;;;13.68;;
5416;SDS011;2731;50.754;12.990;2022-12-11T05:50:06;25.40;;;13.35;;
5416;SDS011;2731;50.754;12.990;2022-12-11T05:52:35;31.95;;;14.52;;
5416;SDS011;2731;50.754;12.990;2022-12-11T05:55:00;31.42;;;13.07;;
5416;SDS011;2731;50.754;12.990;2022-12-11T05:57:25;31.15;;;12.52;;
5416;SDS011;2731;50.754;12.990;2022-12-11T05:59:51;23.27;;;11.77;;
5416;SDS011;2731;50.754;12.990;2022-12-11T06:02:17;27.08;;;11.30;;
5416;SDS011;2731;50.754;12.990;2022-12-11T06:04:43;24.17;;;11.18;;
5416;SDS011;2731;50.754;12.990;2022-12-11T06:07:08;24.45;;;11.90;;
5416;SDS011;2731;50.754;12.990;2022-12-11T06:09:34;25.05;;;12.18;;
5416;SDS011;2731;50.754;12.990;2022-12-11T06:11:59;24.83;;;11.35;;
5416;SDS011;2731;50.754;12.990;2022-12-11T06:14:24;26.92;;;13.15;;
5416;SDS011;2731;50.754;12.990;2022-12-11T06:16:50;19.90;;;9.93;;
5416;SDS011;2731;50.754;12.990;2022-12-11T06:19:15;19.88;;;10.40;;
5416;SDS011;2731;50.754;12.990;2022-12-11T06:21:44;24.35;;;10.10;;
5416;SDS011;2731;50.754;12.990;2022-12-11T06:24:10;22.30;;;11.57;;
5416;SDS011;2731;50.754;12.990;2022-12-11T06:26:36;23.23;;;11.68;;
5416;SDS011;2731;50.754;12.990;2022-12-11T06:29:02;23.90;;;10.45;;
5416;SDS011;2731;50.754;12.990;2022-12-11T06:31:27;22.92;;;11.45;;
5416;SDS011;2731;50.754;12.990;2022-12-11T06:33:54;22.80;;;10.23;;
5416;SDS011;2731;50.754;12.990;2022-12-11T06:36:22;21.33;;;10.93;;
5416;SDS011;2731;50.754;12.990;2022-12-11T06:38:48;19.35;;;9.85;;
5416;SDS011;2731;50.754;12.990;2022-12-11T06:41:13;23.25;;;11.27;;
5416;SDS011;2731;50.754;12.990;2022-12-11T06:43:39;24.95;;;11.52;;
5416;SDS011;2731;50.754;12.990;2022-12-11T06:46:06;28.45;;;11.07;;
5416;SDS011;2731;50.754;12.990;2022-12-11T06:48:40;22.52;;;10.52;;
5416;SDS011;2731;50.754;12.990;2022-12-11T06:51:06;22.42;;;10.82;;
5416;SDS011;2731;50.754;12.990;2022-12-11T06:53:33;19.48;;;8.43;;
5416;SDS011;2731;50.754;12.990;2022-12-11T06:56:05;20.20;;;10.63;;
5416;SDS011;2731;50.754;12.990;2022-12-11T06:58:33;19.35;;;9.43;;
5416;SDS011;2731;50.754;12.990;2022-12-11T07:00:59;23.85;;;10.57;;
5416;SDS011;2731;50.754;12.990;2022-12-11T07:03:25;20.27;;;9.38;;
5416;SDS011;2731;50.754;12.990;2022-12-11T07:05:50;20.80;;;9.75;;
5416;SDS011;2731;50.754;12.990;2022-12-11T07:08:15;19.08;;;9.52;;
5416;SDS011;2731;50.754;12.990;2022-12-11T07:10:41;15.43;;;8.80;;
5416;SDS011;2731;50.754;12.990;2022-12-11T07:13:06;16.80;;;8.93;;
5416;SDS011;2731;50.754;12.990;2022-12-11T07:15:31;17.02;;;8.75;;
5416;SDS011;2731;50.754;12.990;2022-12-11T07:17:57;19.13;;;9.75;;
5416;SDS011;2731;50.754;12.990;2022-12-11T07:20:22;17.73;;;9.38;;
5416;SDS011;2731;50.754;12.990;2022-12-11T07:22:47;17.13;;;9.80;;
5416;SDS011;2731;50.754;12.990;2022-12-11T07:25:13;19.48;;;10.90;;
5416;SDS011;2731;50.754;12.990;2022-12-11T07:27:39;17.25;;;9.57;;
5416;SDS011;2731;50.754;12.990;2022-12-11T07:30:05;21.25;;;9.52;;
5416;SDS011;2731;50.754;12.990;2022-12-11T07:32:31;19.30;;;10.43;;
5416;SDS011;2731;50.754;12.990;2022-12-11T07:34:57;17.25;;;9.25;;
5416;SDS011;2731;50.754;12.990;2022-12-11T07:37:22;20.45;;;11.23;;
5416;SDS011;2731;50.754;12.990;2022-12-11T07:39:47;16.50;;;9.70;;
5416;SDS011;2731;50.754;12.990;2022-12-11T07:42:14;16.95;;;10.07;;
5416;SDS011;2731;50.754;12.990;2022-12-11T07:44:39;19.38;;;10.50;;
5416;SDS011;2731;50.754;12.990;2022-12-11T07:47:06;15.73;;;8.93;;
5416;SDS011;2731;50.754;12.990;2022-12-11T07:49:31;18.77;;;9.43;;
5416;SDS011;2731;50.754;12.990;2022-12-11T07:51:58;19.58;;;10.50;;
5416;SDS011;2731;50.754;12.990;2022-12-11T07:54:24;20.20;;;10.85;;
5416;SDS011;2731;50.754;12.990;2022-12-11T07:56:49;17.35;;;9.68;;
5416;SDS011;2731;50.754;12.990;2022-12-11T07:59:15;20.92;;;10.57;;
5416;SDS011;2731;50.754;12.990;2022-12-11T08:01:40;17.35;;;10.20;;
5416;SDS011;2731;50.754;12.990;2022-12-11T08:04:07;19.27;;;10.57;;
5416;SDS011;2731;50.754;12.990;2022-12-11T08:06:34;18.30;;;9.45;;
5416;SDS011;2731;50.754;12.990;2022-12-11T08:09:02;20.40;;;10.45;;
5416;SDS011;2731;50.754;12.990;2022-12-11T08:11:31;18.38;;;10.02;;
5416;SDS011;2731;50.754;12.990;2022-12-11T08:13:57;16.38;;;9.63;;
5416;SDS011;2731;50.754;12.990;2022-12-11T08:16:24;20.67;;;10.18;;
5416;SDS011;2731;50.754;12.990;2022-12-11T08:18:50;18.45;;;11.13;;
5416;SDS011;2731;50.754;12.990;2022-12-11T08:21:20;17.00;;;9.73;;
5416;SDS011;2731;50.754;12.990;2022-12-11T08:23:47;21.40;;;11.15;;
5416;SDS011;2731;50.754;12.990;2022-12-11T08:26:14;18.00;;;9.55;;
5416;SDS011;2731;50.754;12.990;2022-12-11T08:28:40;19.65;;;10.45;;
5416;SDS011;2731;50.754;12.990;2022-12-11T08:31:08;22.63;;;11.38;;
5416;SDS011;2731;50.754;12.990;2022-12-11T08:33:35;23.33;;;10.13;;
5416;SDS011;2731;50.754;12.990;2022-12-11T08:36:04;20.08;;;11.25;;
5416;SDS011;2731;50.754;12.990;2022-12-11T08:38:31;22.15;;;11.50;;
5416;SDS011;2731;50.754;12.990;2022-12-11T08:40:57;24.10;;;11.93;;
5416;SDS011;2731;50.754;12.990;2022-12-11T08:43:22;23.27;;;11.25;;
5416;SDS011;2731;50.754;12.990;2022-12-11T08:45:49;21.42;;;10.57;;
5416;SDS011;2731;50.754;12.990;2022-12-11T08:48:15;21.58;;;10.32;;
5416;SDS011;2731;50.754;12.990;2022-12-11T08:50:42;21.00;;;11.18;;
5416;SDS011;2731;50.754;12.990;2022-12-11T08:53:09;21.48;;;10.50;;
5416;SDS011;2731;50.754;12.990;2022-12-11T08:55:35;18.80;;;11.45;;
5416;SDS011;2731;50.754;12.990;2022-12-11T08:58:00;20.52;;;11.30;;
5416;SDS011;2731;50.754;12.990;2022-12-11T09:00:26;20.70;;;11.32;;
5416;SDS011;2731;50.754;12.990;2022-12-11T09:02:51;22.20;;;11.02;;
5416;SDS011;2731;50.754;12.990;2022-12-11T09:05:16;21.60;;;10.85;;
5416;SDS011;2731;50.754;12.990;2022-12-11T09:07:42;24.23;;;11.55;;
5416;SDS011;2731;50.754;12.990;2022-12-11T09:10:07;20.88;;;9.98;;
5416;SDS011;2731;50.754;12.990;2022-12-11T09:12:34;21.67;;;10.77;;
5416;SDS011;2731;50.754;12.990;2022-12-11T09:14:59;19.35;;;10.60;;
5416;SDS011;2731;50.754;12.990;2022-12-11T09:17:25;23.10;;;11.52;;
5416;SDS011;2731;50.754;12.990;2022-12-11T09:19:50;20.15;;;11.20;;
5416;SDS011;2731;50.754;12.990;2022-12-11T09:22:17;21.33;;;10.52;;
5416;SDS011;2731;50.754;12.990;2022-12-11T09:24:42;27.20;;;11.68;;
5416;SDS011;2731;50.754;12.990;2022-12-11T09:27:07;20.38;;;10.68;;
5416;SDS011;2731;50.754;12.990;2022-12-11T09:29:33;24.20;;;11.35;;
5416;SDS011;2731;50.754;12.990;2022-12-11T09:31:58;21.13;;;10.85;;
5416;SDS011;2731;50.754;12.990;2022-12-11T09:34:23;20.92;;;10.70;;
5416;SDS011;2731;50.754;12.990;2022-12-11T09:36:49;20.42;;;11.23;;
5416;SDS011;2731;50.754;12.990;2022-12-11T09:39:15;20.83;;;11.77;;
5416;SDS011;2731;50.754;12.990;2022-12-11T09:47:16;22.98;;;11.77;;
5416;SDS011;2731;50.754;12.990;2022-12-11T09:49:45;18.45;;;9.85;;
5416;SDS011;2731;50.754;12.990;2022-12-11T09:52:25;21.38;;;11.07;;
5416;SDS011;2731;50.754;12.990;2022-12-11T09:54:57;20.55;;;10.43;;
5416;SDS011;2731;50.754;12.990;2022-12-11T09:57:32;21.15;;;10.90;;
5416;SDS011;2731;50.754;12.990;2022-12-11T10:00:08;21.73;;;10.05;;
5416;SDS011;2731;50.754;12.990;2022-12-11T10:05:27;21.10;;;10.43;;
5416;SDS011;2731;50.754;12.990;2022-12-11T10:13:48;17.58;;;9.40;;
5416;SDS011;2731;50.754;12.990;2022-12-11T10:19:00;19.95;;;10.32;;
5416;SDS011;2731;50.754;12.990;2022-12-11T10:21:25;16.20;;;9.40;;
5416;SDS011;2731;50.754;12.990;2022-12-11T10:23:59;18.38;;;10.20;;
5416;SDS011;2731;50.754;12.990;2022-12-11T10:26:26;20.63;;;11.23;;
5416;SDS011;2731;50.754;12.990;2022-12-11T10:28:52;20.15;;;11.13;;
5416;SDS011;2731;50.754;12.990;2022-12-11T10:34:12;18.73;;;10.60;;
5416;SDS011;2731;50.754;12.990;2022-12-11T10:36:40;23.17;;;11.25;;
5416;SDS011;2731;50.754;12.990;2022-12-11T10:39:16;23.98;;;13.30;;
5416;SDS011;2731;50.754;12.990;2022-12-11T10:41:44;23.92;;;12.00;;
5416;SDS011;2731;50.754;12.990;2022-12-11T10:44:29;23.95;;;12.32;;
5416;SDS011;2731;50.754;12.990;2022-12-11T10:47:03;31.48;;;14.35;;
5416;SDS011;2731;50.754;12.990;2022-12-11T10:49:43;27.85;;;14.57;;
5416;SDS011;2731;50.754;12.990;2022-12-11T10:52:18;28.00;;;12.60;;
5416;SDS011;2731;50.754;12.990;2022-12-11T10:54:52;24.45;;;12.20;;
5416;SDS011;2731;50.754;12.990;2022-12-11T10:57:24;25.35;;;13.40;;
5416;SDS011;2731;50.754;12.990;2022-12-11T10:59:52;23.27;;;11.27;;
5416;SDS011;2731;50.754;12.990;2022-12-11T11:02:23;20.92;;;11.45;;
5416;SDS011;2731;50.754;12.990;2022-12-11T11:04:51;19.58;;;10.18;;
5416;SDS011;2731;50.754;12.990;2022-12-11T11:07:20;18.80;;;9.50;;
5416;SDS011;2731;50.754;12.990;2022-12-11T11:09:46;21.85;;;11.30;;
5416;SDS011;2731;50.754;12.990;2022-12-11T11:12:20;17.98;;;9.27;;
5416;SDS011;2731;50.754;12.990;2022-12-11T11:18:11;22.00;;;10.27;;
5416;SDS011;2731;50.754;12.990;2022-12-11T11:20:41;21.77;;;10.20;;
5416;SDS011;2731;50.754;12.990;2022-12-11T11:23:10;23.55;;;11.27;;
5416;SDS011;2731;50.754;12.990;2022-12-11T11:25:38;22.10;;;10.50;;
5416;SDS011;2731;50.754;12.990;2022-12-11T11:28:20;16.23;;;9.43;;
5416;SDS011;2731;50.754;12.990;2022-12-11T11:31:02;20.45;;;10.77;;
5416;SDS011;2731;50.754;12.990;2022-12-11T11:33:30;22.25;;;11.55;;
5416;SDS011;2731;50.754;12.990;2022-12-11T11:36:00;21.63;;;11.30;;
5416;SDS011;2731;50.754;12.990;2022-12-11T11:38:45;23.77;;;10.50;;
5416;SDS011;2731;50.754;12.990;2022-12-11T11:41:49;24.67;;;11.63;;
5416;SDS011;2731;50.754;12.990;2022-12-11T11:44:23;22.70;;;10.85;;
5416;SDS011;2731;50.754;12.990;2022-12-11T11:47:02;21.40;;;11.45;;
5416;SDS011;2731;50.754;12.990;2022-12-11T12:00:36;19.52;;;10.43;;
5416;SDS011;2731;50.754;12.990;2022-12-11T12:03:07;18.00;;;9.50;;
5416;SDS011;2731;50.754;12.990;2022-12-11T12:11:04;19.25;;;9.77;;
5416;SDS011;2731;50.754;12.990;2022-12-11T12:24:14;20.85;;;10.88;;
5416;SDS011;2731;50.754;12.990;2022-12-11T12:29:38;20.42;;;11.32;;
5416;SDS011;2731;50.754;12.990;2022-12-11T12:32:41;18.95;;;11.05;;
5416;SDS011;2731;50.754;12.990;2022-12-11T12:35:54;20.83;;;11.10;;
5416;SDS011;2731;50.754;12.990;2022-12-11T12:43:57;26.08;;;11.82;;
5416;SDS011;2731;50.754;12.990;2022-12-11T12:47:07;24.70;;;11.30;;
5416;SDS011;2731;50.754;12.990;2022-12-11T12:49:17;20.40;;;11.20;;
5416;SDS011;2731;50.754;12.990;2022-12-11T12:51:56;17.33;;;10.27;;
5416;SDS011;2731;50.754;12.990;2022-12-11T12:54:22;20.20;;;10.68;;
5416;SDS011;2731;50.754;12.990;2022-12-11T12:56:48;20.85;;;10.10;;
5416;SDS011;2731;50.754;12.990;2022-12-11T12:59:25;18.02;;;9.48;;
5416;SDS011;2731;50.754;12.990;2022-12-11T13:02:01;21.10;;;10.68;;
5416;SDS011;2731;50.754;12.990;2022-12-11T13:04:35;24.52;;;11.15;;
5416;SDS011;2731;50.754;12.990;2022-12-11T13:07:47;20.95;;;10.32;;
5416;SDS011;2731;50.754;12.990;2022-12-11T13:12:53;19.67;;;9.57;;
5416;SDS011;2731;50.754;12.990;2022-12-11T13:15:38;20.63;;;10.65;;
5416;SDS011;2731;50.754;12.990;2022-12-11T13:20:54;22.38;;;12.02;;
5416;SDS011;2731;50.754;12.990;2022-12-11T13:23:27;25.67;;;12.60;;
5416;SDS011;2731;50.754;12.990;2022-12-11T13:25:56;21.65;;;11.70;;
5416;SDS011;2731;50.754;12.990;2022-12-11T13:33:40;24.73;;;12.48;;
5416;SDS011;2731;50.754;12.990;2022-12-11T13:38:33;26.15;;;13.35;;
5416;SDS011;2731;50.754;12.990;2022-12-11T13:40:59;23.10;;;12.23;;
5416;SDS011;2731;50.754;12.990;2022-12-11T13:43:27;25.95;;;14.00;;
5416;SDS011;2731;50.754;12.990;2022-12-11T13:45:59;28.98;;;16.20;;
5416;SDS011;2731;50.754;12.990;2022-12-11T13:48:32;32.78;;;15.05;;
5416;SDS011;2731;50.754;12.990;2022-12-11T13:51:01;30.77;;;13.95;;
5416;SDS011;2731;50.754;12.990;2022-12-11T13:53:27;23.50;;;12.95;;
5416;SDS011;2731;50.754;12.990;2022-12-11T13:58:40;30.13;;;15.40;;
5416;SDS011;2731;50.754;12.990;2022-12-11T14:04:06;29.05;;;15.00;;
5416;SDS011;2731;50.754;12.990;2022-12-11T14:06:35;26.33;;;13.60;;
5416;SDS011;2731;50.754;12.990;2022-12-11T14:09:04;22.77;;;11.75;;
5416;SDS011;2731;50.754;12.990;2022-12-11T14:11:38;22.40;;;11.07;;
5416;SDS011;2731;50.754;12.990;2022-12-11T14:14:53;22.35;;;11.43;;
5416;SDS011;2731;50.754;12.990;2022-12-11T14:17:02;24.77;;;12.60;;
5416;SDS011;2731;50.754;12.990;2022-12-11T14:19:28;23.73;;;10.88;;
5416;SDS011;2731;50.754;12.990;2022-12-11T14:22:03;23.77;;;11.13;;
5416;SDS011;2731;50.754;12.990;2022-12-11T14:24:30;22.88;;;10.90;;
